Time;durP1;ratioP1;P1;durP2;ratioP2;P2;SDS_P1;SDS_P2;PMS_P1;PMS_P2;Temp;Humidity;BMP_temperature;BMP_pressure;BME280_temperature;BME280_humidity;BME280_pressure;Samples;Min_cycle;Max_cycle;Signal;HPM_P1;HPM_P2
2021/03/10 00:00:23;;;;;;;38.92;28.25;;;10.90;51.80;;;;;;5053668;28;20052;-56
2021/03/10 00:02:48;;;;;;;35.37;27.17;;;10.80;51.60;;;;;;5059286;28;20071;-54
2021/03/10 00:05:14;;;;;;;37.40;27.63;;;10.80;51.70;;;;;;5056070;28;20091;-55
2021/03/10 00:07:40;;;;;;;37.83;28.13;;;10.90;51.80;;;;;;5076419;28;20052;-56
2021/03/10 00:10:07;;;;;;;37.93;27.30;;;10.90;52.30;;;;;;5051249;28;20636;-56
2021/03/10 00:12:34;;;;;;;40.30;28.87;;;10.80;52.90;;;;;;5056713;28;20152;-56
2021/03/10 00:15:00;;;;;;;41.63;29.57;;;10.80;51.50;;;;;;5056431;28;20045;-56
2021/03/10 00:17:26;;;;;;;35.57;27.50;;;10.90;51.50;;;;;;5061714;28;20498;-55
2021/03/10 00:19:51;;;;;;;40.93;29.90;;;10.90;51.40;;;;;;5054110;28;20093;-53
2021/03/10 00:22:17;;;;;;;42.10;29.53;;;10.80;51.80;;;;;;5050207;28;20048;-53
2021/03/10 00:24:43;;;;;;;40.73;29.87;;;10.80;52.10;;;;;;5049092;28;20037;-57
2021/03/10 00:27:09;;;;;;;40.00;28.60;;;10.70;52.40;;;;;;5057604;28;20037;-55
2021/03/10 00:29:35;;;;;;;38.90;27.43;;;10.70;52.30;;;;;;5057308;28;20118;-55
2021/03/10 00:32:00;;;;;;;35.43;26.00;;;10.70;52.40;;;;;;5053473;28;20090;-56
2021/03/10 00:34:26;;;;;;;36.63;25.93;;;10.70;52.60;;;;;;5054863;28;20063;-55
2021/03/10 00:36:52;;;;;;;34.27;26.47;;;10.70;52.80;;;;;;5065509;28;20610;-55
2021/03/10 00:39:18;;;;;;;33.80;25.43;;;10.60;53.00;;;;;;5059136;28;20044;-56
2021/03/10 00:41:43;;;;;;;36.63;25.70;;;10.60;52.90;;;;;;5050434;28;20389;-56
2021/03/10 00:44:09;;;;;;;36.43;24.13;;;10.50;53.20;;;;;;5074691;28;20036;-56
2021/03/10 00:46:35;;;;;;;30.30;22.80;;;10.60;53.30;;;;;;5058920;28;20037;-55
2021/03/10 00:49:00;;;;;;;28.20;21.70;;;10.50;52.70;;;;;;5060260;28;20037;-54
2021/03/10 00:51:26;;;;;;;26.90;19.90;;;10.60;52.90;;;;;;5056908;28;20055;-54
2021/03/10 00:53:52;;;;;;;25.17;18.08;;;10.50;52.50;;;;;;5057943;28;20048;-52
2021/03/10 00:56:17;;;;;;;24.23;18.57;;;10.50;52.90;;;;;;5055663;28;20483;-54
2021/03/10 00:58:43;;;;;;;21.83;17.30;;;10.50;53.50;;;;;;5060987;28;20036;-51
2021/03/10 01:01:08;;;;;;;22.83;17.17;;;10.50;53.00;;;;;;5058721;28;20086;-50
2021/03/10 01:03:34;;;;;;;22.83;17.00;;;10.50;52.80;;;;;;5059853;28;20107;-53
2021/03/10 01:06:00;;;;;;;19.13;14.87;;;10.50;52.70;;;;;;5057970;28;20063;-52
2021/03/10 01:08:25;;;;;;;18.00;14.70;;;10.50;52.60;;;;;;5063304;28;20033;-54
2021/03/10 01:10:51;;;;;;;19.60;14.17;;;10.50;52.40;;;;;;5064446;28;20044;-50
2021/03/10 01:13:17;;;;;;;17.77;13.20;;;10.40;52.80;;;;;;5055642;28;20775;-52
2021/03/10 01:15:42;;;;;;;16.87;13.63;;;10.50;52.50;;;;;;5061323;28;20378;-54
2021/03/10 01:18:08;;;;;;;14.23;12.67;;;10.50;52.60;;;;;;5059864;28;20391;-53
2021/03/10 01:20:34;;;;;;;16.63;12.80;;;10.50;52.20;;;;;;5061657;28;20436;-53
2021/03/10 01:23:00;;;;;;;19.53;13.67;;;10.50;52.00;;;;;;5057356;28;20414;-52
2021/03/10 01:25:26;;;;;;;23.50;14.73;;;10.50;51.90;;;;;;5063200;28;20094;-53
2021/03/10 01:27:52;;;;;;;16.60;14.07;;;10.50;52.70;;;;;;5053715;28;20120;-57
2021/03/10 01:34:01;;;;;;;24.00;17.30;;;10.50;52.60;;;;;;5012164;28;20071;-52
2021/03/10 01:36:26;;;;;;;23.77;17.97;;;10.40;53.40;;;;;;5061600;28;20041;-53
2021/03/10 01:38:52;;;;;;;22.90;17.83;;;10.30;52.80;;;;;;5057283;28;20051;-51
2021/03/10 01:41:18;;;;;;;23.67;17.07;;;10.30;52.80;;;;;;5061656;28;20137;-51
2021/03/10 01:43:44;;;;;;;26.13;17.60;;;10.30;53.30;;;;;;5060666;28;20086;-55
2021/03/10 01:46:10;;;;;;;24.07;17.37;;;10.30;53.10;;;;;;5060949;28;20044;-56
2021/03/10 01:48:36;;;;;;;26.63;18.40;;;10.30;52.90;;;;;;5054337;28;20041;-55
2021/03/10 01:51:06;;;;;;;24.53;18.77;;;10.30;53.20;;;;;;5059445;28;20045;-55
2021/03/10 01:53:33;;;;;;;27.10;17.50;;;10.20;53.40;;;;;;5073521;28;20052;-56
2021/03/10 01:56:00;;;;;;;24.23;17.40;;;10.30;53.00;;;;;;5060424;28;20036;-56
2021/03/10 01:58:35;;;;;;;19.00;15.27;;;10.20;53.20;;;;;;5051891;28;20037;-55
2021/03/10 02:01:01;;;;;;;19.47;15.20;;;10.30;52.90;;;;;;5060541;28;20036;-56
2021/03/10 02:03:26;;;;;;;18.60;14.70;;;10.20;53.00;;;;;;5060888;28;20505;-55
2021/03/10 02:05:52;;;;;;;18.00;13.87;;;10.20;52.90;;;;;;5060088;28;20579;-54
2021/03/10 02:08:36;;;;;;;18.97;14.73;;;10.20;52.90;;;;;;5071978;28;20037;-55
2021/03/10 02:11:33;;;;;;;20.30;13.60;;;10.20;52.80;;;;;;5076509;28;20102;-52
2021/03/10 02:14:24;;;;;;;19.77;13.87;;;10.10;53.20;;;;;;5031438;28;20040;-51
2021/03/10 02:16:56;;;;;;;19.00;14.10;;;10.20;54.00;;;;;;5038092;28;20040;-52
2021/03/10 02:19:28;;;;;;;17.63;14.03;;;10.10;53.50;;;;;;5058676;28;20442;-56
2021/03/10 02:22:30;;;;;;;17.50;13.60;;;10.10;53.60;;;;;;5060062;28;20051;-53
2021/03/10 02:25:33;;;;;;;18.20;14.23;;;10.20;53.50;;;;;;5027825;28;20037;-55
2021/03/10 02:28:01;;;;;;;19.00;14.53;;;10.20;53.40;;;;;;5035447;28;20037;-53
2021/03/10 02:30:35;;;;;;;17.70;13.47;;;10.10;53.30;;;;;;5052822;28;20482;-53
2021/03/10 02:33:09;;;;;;;18.13;14.70;;;10.10;53.30;;;;;;5056270;28;20053;-50
2021/03/10 02:35:39;;;;;;;24.48;14.13;;;10.10;53.60;;;;;;5057005;28;20509;-52
2021/03/10 02:38:07;;;;;;;19.73;15.37;;;10.10;53.40;;;;;;5060962;28;20044;-53
2021/03/10 02:40:37;;;;;;;22.00;15.63;;;10.10;53.10;;;;;;5054799;28;20049;-53
2021/03/10 02:43:03;;;;;;;27.83;16.77;;;10.20;53.20;;;;;;5058738;28;20033;-50
2021/03/10 02:45:29;;;;;;;22.10;15.63;;;10.20;53.20;;;;;;5055360;28;20482;-54
2021/03/10 02:48:00;;;;;;;20.37;15.63;;;10.20;53.20;;;;;;5054095;28;20086;-54
2021/03/10 02:50:26;;;;;;;21.97;16.27;;;10.20;53.50;;;;;;5054937;28;20059;-52
2021/03/10 02:52:53;;;;;;;22.47;17.10;;;10.20;53.40;;;;;;5058758;28;20179;-50
2021/03/10 02:55:19;;;;;;;24.33;18.13;;;10.20;53.40;;;;;;5057069;28;20032;-53
2021/03/10 02:57:46;;;;;;;21.73;17.70;;;10.20;53.40;;;;;;5060610;28;20058;-51
2021/03/10 03:00:18;;;;;;;23.23;17.60;;;10.10;53.60;;;;;;5056687;28;20424;-51
2021/03/10 03:02:43;;;;;;;20.67;16.83;;;10.10;53.90;;;;;;5061364;28;20406;-54
2021/03/10 03:05:10;;;;;;;21.23;16.57;;;10.00;53.90;;;;;;5058322;28;20033;-57
2021/03/10 03:07:40;;;;;;;23.90;18.00;;;10.10;53.80;;;;;;5054985;28;20541;-54
2021/03/10 03:10:10;;;;;;;22.20;15.80;;;10.00;53.80;;;;;;5056595;28;20036;-51
2021/03/10 03:12:38;;;;;;;21.43;14.77;;;10.00;54.20;;;;;;5054616;28;20502;-52
2021/03/10 03:15:05;;;;;;;21.70;15.37;;;10.00;54.50;;;;;;5074400;28;20159;-56
2021/03/10 03:17:32;;;;;;;20.53;16.30;;;9.90;54.50;;;;;;5058011;28;20442;-56
2021/03/10 03:19:58;;;;;;;25.27;16.60;;;9.90;54.50;;;;;;5075641;28;20041;-52
2021/03/10 03:22:24;;;;;;;21.17;15.57;;;9.90;54.40;;;;;;5056450;28;20078;-54
2021/03/10 03:24:51;;;;;;;19.37;14.20;;;9.80;54.70;;;;;;5061568;28;20056;-53
2021/03/10 03:27:27;;;;;;;20.60;16.57;;;9.80;55.10;;;;;;5050753;28;20033;-52
2021/03/10 03:29:55;;;;;;;22.50;15.53;;;9.80;55.30;;;;;;5052728;28;20040;-53
2021/03/10 03:32:24;;;;;;;21.63;16.90;;;9.80;55.20;;;;;;5056347;28;20525;-53
2021/03/10 03:34:50;;;;;;;23.20;17.27;;;9.80;55.00;;;;;;5060334;28;20109;-51
2021/03/10 03:37:16;;;;;;;22.00;16.53;;;9.80;55.30;;;;;;5058743;28;20049;-56
2021/03/10 03:39:43;;;;;;;20.83;16.33;;;9.70;55.30;;;;;;5059932;28;20044;-51
2021/03/10 03:42:09;;;;;;;19.93;15.80;;;9.80;55.60;;;;;;5072723;28;20074;-55
2021/03/10 03:44:34;;;;;;;22.17;16.30;;;9.80;55.60;;;;;;5062504;28;20510;-55
2021/03/10 03:47:01;;;;;;;24.00;18.20;;;9.70;55.50;;;;;;5057920;28;20059;-55
2021/03/10 03:49:27;;;;;;;24.27;18.03;;;9.70;55.50;;;;;;5057649;28;20041;-54
2021/03/10 03:51:52;;;;;;;25.77;17.53;;;9.80;55.70;;;;;;5054555;28;20049;-51
2021/03/10 03:54:18;;;;;;;27.20;18.70;;;9.70;55.90;;;;;;5056785;28;20037;-54
2021/03/10 04:03:27;;;;;;;26.53;20.47;;;9.60;57.90;;;;;;5029817;28;20094;-56
2021/03/10 04:05:53;;;;;;;24.93;18.83;;;9.50;56.70;;;;;;5057539;28;20489;-54
2021/03/10 04:08:19;;;;;;;25.20;18.97;;;9.60;56.90;;;;;;5052215;28;20422;-55
2021/03/10 04:10:46;;;;;;;25.10;19.27;;;9.60;56.60;;;;;;5053623;28;20040;-53
2021/03/10 04:13:11;;;;;;;24.97;18.60;;;9.50;56.70;;;;;;5058726;28;20076;-54
2021/03/10 04:15:37;;;;;;;25.37;18.87;;;9.60;57.20;;;;;;5060159;28;20068;-55
2021/03/10 04:18:03;;;;;;;25.60;19.40;;;9.50;56.90;;;;;;5064250;28;20528;-51
2021/03/10 04:20:30;;;;;;;25.03;20.10;;;9.60;56.70;;;;;;5050589;28;20056;-54
2021/03/10 04:22:55;;;;;;;25.53;20.63;;;9.50;56.80;;;;;;5056091;28;20112;-53
2021/03/10 04:25:22;;;;;;;25.77;19.20;;;9.50;57.00;;;;;;5048818;28;20116;-54
2021/03/10 04:27:47;;;;;;;30.10;22.90;;;9.50;57.50;;;;;;5053434;28;20044;-56
2021/03/10 04:30:14;;;;;;;30.77;21.97;;;9.50;57.10;;;;;;5050132;28;20033;-53
2021/03/10 04:32:39;;;;;;;26.63;20.83;;;9.50;57.30;;;;;;5056383;28;20111;-54
2021/03/10 04:35:07;;;;;;;26.80;21.00;;;9.50;57.30;;;;;;5062513;28;20052;-56
2021/03/10 04:37:32;;;;;;;26.27;19.37;;;9.40;57.50;;;;;;5060839;28;20162;-56
2021/03/10 04:39:58;;;;;;;29.70;21.50;;;9.50;57.90;;;;;;5054287;28;20052;-51
2021/03/10 04:42:24;;;;;;;27.77;20.93;;;9.40;57.60;;;;;;5061016;28;20048;-55
2021/03/10 04:44:50;;;;;;;28.20;20.07;;;9.50;57.80;;;;;;5051229;28;20033;-52
2021/03/10 04:47:15;;;;;;;27.97;20.40;;;9.40;57.90;;;;;;5062256;28;20036;-50
2021/03/10 04:49:41;;;;;;;27.70;20.77;;;9.50;57.70;;;;;;5054822;28;21988;-54
2021/03/10 04:52:56;;;;;;;27.97;20.23;;;9.40;58.20;;;;;;5055050;28;20075;-54
2021/03/10 04:55:22;;;;;;;26.27;20.20;;;9.50;58.20;;;;;;5029673;28;20037;-52
2021/03/10 04:57:47;;;;;;;23.80;18.27;;;9.50;57.70;;;;;;5056422;28;20075;-55
2021/03/10 05:00:14;;;;;;;25.13;18.57;;;9.40;57.90;;;;;;5053583;28;20128;-52
2021/03/10 05:03:30;;;;;;;27.13;20.50;;;9.50;57.40;;;;;;5059509;28;20040;-56
2021/03/10 05:05:55;;;;;;;26.27;19.48;;;9.50;58.30;;;;;;5021221;28;20033;-53
2021/03/10 05:08:21;;;;;;;26.53;20.13;;;9.50;57.50;;;;;;5058016;28;20115;-52
2021/03/10 05:14:38;;;;;;;23.60;16.43;;;9.50;58.70;;;;;;5012098;28;20469;-55
2021/03/10 05:17:03;;;;;;;21.92;16.42;;;9.40;57.90;;;;;;5051267;28;20146;-54
2021/03/10 05:19:29;;;;;;;21.43;16.27;;;9.30;58.00;;;;;;5057172;28;20111;-54
2021/03/10 05:21:55;;;;;;;18.77;14.20;;;9.30;58.20;;;;;;5055768;28;20387;-52
2021/03/10 05:24:21;;;;;;;22.10;15.43;;;9.30;58.60;;;;;;5050229;28;20044;-51
2021/03/10 05:26:47;;;;;;;21.97;15.90;;;9.40;58.50;;;;;;5056354;28;20041;-55
2021/03/10 05:29:12;;;;;;;26.13;18.03;;;9.40;58.60;;;;;;5058842;28;20111;-53
2021/03/10 05:31:38;;;;;;;26.73;19.63;;;9.40;58.20;;;;;;5055123;28;20598;-50
2021/03/10 05:34:03;;;;;;;29.43;20.73;;;9.40;57.90;;;;;;5057582;28;20083;-54
2021/03/10 05:36:29;;;;;;;30.37;21.27;;;9.50;57.80;;;;;;5058732;28;20411;-52
2021/03/10 05:38:54;;;;;;;35.93;25.20;;;9.40;57.90;;;;;;5059891;28;20044;-51
2021/03/10 05:41:20;;;;;;;32.27;24.47;;;9.40;57.80;;;;;;5063664;28;20040;-52
2021/03/10 05:43:48;;;;;;;34.17;25.20;;;9.30;58.30;;;;;;5057764;28;20533;-54
2021/03/10 05:46:14;;;;;;;37.63;27.93;;;9.20;57.60;;;;;;5078400;28;20108;-55
2021/03/10 05:48:40;;;;;;;39.93;27.17;;;9.20;57.80;;;;;;5059673;28;20054;-52
2021/03/10 05:51:07;;;;;;;38.00;27.67;;;9.10;58.10;;;;;;5062693;28;20043;-53
2021/03/10 05:53:38;;;;;;;37.47;28.17;;;9.10;58.20;;;;;;5054391;28;20091;-52
2021/03/10 05:56:06;;;;;;;40.30;28.53;;;9.10;58.60;;;;;;5072839;28;20091;-52
2021/03/10 05:58:32;;;;;;;37.63;27.40;;;9.00;57.80;;;;;;5052148;28;20044;-54
2021/03/10 06:00:57;;;;;;;38.63;27.93;;;9.10;58.00;;;;;;5054093;28;20036;-54
2021/03/10 06:03:23;;;;;;;39.30;28.13;;;9.10;57.20;;;;;;5056232;28;20072;-54
2021/03/10 06:06:01;;;;;;;38.30;27.93;;;9.10;57.00;;;;;;5054838;28;20166;-52
2021/03/10 06:15:12;;;;;;;35.00;27.70;;;8.90;57.20;;;;;;5014616;28;20389;-56
2021/03/10 06:17:49;;;;;;;43.63;30.13;;;9.00;58.10;;;;;;5064314;28;20103;-56
2021/03/10 06:20:26;;;;;;;40.00;28.57;;;9.00;57.70;;;;;;5061382;28;20043;-55
2021/03/10 06:22:53;;;;;;;39.63;29.13;;;9.00;57.40;;;;;;5060744;28;20039;-53
2021/03/10 06:25:20;;;;;;;41.93;28.13;;;9.00;57.60;;;;;;5057117;28;20075;-54
2021/03/10 06:27:57;;;;;;;38.17;27.97;;;9.10;57.20;;;;;;5078186;28;20056;-50
2021/03/10 06:30:44;;;;;;;44.13;28.93;;;9.10;56.70;;;;;;5056933;28;20434;-52
2021/03/10 06:33:21;;;;;;;37.03;26.13;;;9.10;56.90;;;;;;5037064;28;20130;-50
2021/03/10 06:35:46;;;;;;;36.40;25.87;;;9.10;56.50;;;;;;5050890;28;20040;-52
2021/03/10 06:38:17;;;;;;;37.87;24.40;;;9.10;56.70;;;;;;5061230;28;20037;-53
2021/03/10 06:40:59;;;;;;;37.37;26.53;;;9.10;56.40;;;;;;5056022;28;20047;-55
2021/03/10 06:46:57;;;;;;;35.90;26.03;;;9.20;56.40;;;;;;5011133;28;20115;-53
2021/03/10 06:49:27;;;;;;;39.00;24.10;;;9.10;56.70;;;;;;5055907;28;20056;-52
2021/03/10 06:51:54;;;;;;;41.20;24.53;;;9.20;56.10;;;;;;5058882;28;20482;-51
2021/03/10 06:54:24;;;;;;;34.80;24.03;;;9.30;55.70;;;;;;5055194;28;20482;-56
2021/03/10 06:57:01;;;;;;;41.97;24.67;;;9.30;55.10;;;;;;5061330;28;20039;-49
2021/03/10 06:59:47;;;;;;;38.93;25.13;;;9.20;54.90;;;;;;5068000;28;20101;-53
2021/03/10 07:02:15;;;;;;;34.90;25.23;;;9.40;54.90;;;;;;5058812;28;20036;-55
2021/03/10 07:04:49;;;;;;;39.80;24.17;;;9.30;55.50;;;;;;5068632;28;20553;-53
2021/03/10 07:07:16;;;;;;;40.72;24.33;;;9.30;55.30;;;;;;5060669;28;20486;-54
2021/03/10 07:09:43;;;;;;;37.00;24.17;;;9.40;55.20;;;;;;5059724;28;20451;-55
2021/03/10 07:12:10;;;;;;;41.60;24.37;;;9.50;55.30;;;;;;5057035;28;20055;-51
2021/03/10 07:14:37;;;;;;;32.10;22.40;;;9.50;55.00;;;;;;5059986;28;20037;-53
2021/03/10 07:17:08;;;;;;;30.53;23.53;;;9.60;54.90;;;;;;5057709;28;20041;-51
2021/03/10 07:19:33;;;;;;;39.23;24.90;;;9.70;54.70;;;;;;5056934;28;20102;-55
2021/03/10 07:22:23;;;;;;;40.40;24.87;;;9.70;55.00;;;;;;5052222;28;20033;-50
2021/03/10 07:25:09;;;;;;;41.17;24.87;;;9.80;55.40;;;;;;5030796;28;20040;-55
2021/03/10 07:28:02;;;;;;;34.97;24.73;;;9.80;54.80;;;;;;5051916;28;20550;-56
2021/03/10 07:30:41;;;;;;;36.10;23.17;;;9.90;54.80;;;;;;5032155;28;20098;-56
2021/03/10 07:33:15;;;;;;;38.30;25.20;;;9.90;54.90;;;;;;5020870;28;20045;-56
2021/03/10 07:35:58;;;;;;;36.97;26.50;;;9.90;55.60;;;;;;5059004;28;20048;-53
2021/03/10 07:38:45;;;;;;;40.33;26.30;;;10.00;55.20;;;;;;5055769;28;20043;-54
2021/03/10 07:41:13;;;;;;;38.93;25.20;;;9.90;54.90;;;;;;5029046;28;20098;-55
2021/03/10 07:43:43;;;;;;;39.00;25.17;;;10.00;54.90;;;;;;5058426;28;20123;-56
2021/03/10 07:46:28;;;;;;;41.97;25.57;;;10.10;54.40;;;;;;5057774;28;20041;-52
2021/03/10 07:48:55;;;;;;;51.23;26.93;;;10.20;54.60;;;;;;5055965;28;20041;-55
2021/03/10 07:51:34;;;;;;;38.70;23.73;;;10.20;54.70;;;;;;5057449;28;20071;-52
2021/03/10 07:54:01;;;;;;;35.20;23.03;;;10.20;55.00;;;;;;5054618;28;20382;-54
2021/03/10 07:56:29;;;;;;;33.53;23.30;;;10.30;54.30;;;;;;5059124;28;20032;-55
2021/03/10 07:59:10;;;;;;;30.97;21.43;;;10.30;54.10;;;;;;5053205;28;20066;-54
2021/03/10 08:01:36;;;;;;;35.87;23.43;;;10.20;53.50;;;;;;5055528;28;20166;-52
2021/03/10 08:04:13;;;;;;;36.77;22.63;;;10.30;53.80;;;;;;5068991;28;20101;-56
2021/03/10 08:06:49;;;;;;;31.67;21.77;;;10.30;53.90;;;;;;5060096;28;20167;-56
2021/03/10 08:09:18;;;;;;;29.50;21.47;;;10.40;53.10;;;;;;5051274;28;20082;-56
2021/03/10 08:11:46;;;;;;;33.00;22.60;;;10.40;52.90;;;;;;5056444;28;20033;-57
2021/03/10 08:14:16;;;;;;;36.40;21.60;;;10.40;52.50;;;;;;5054216;28;20123;-55
2021/03/10 08:16:48;;;;;;;32.17;21.43;;;10.40;52.10;;;;;;5057324;28;20044;-55
2021/03/10 08:19:18;;;;;;;30.17;21.13;;;10.50;51.20;;;;;;5056555;28;20068;-54
2021/03/10 08:21:50;;;;;;;31.57;20.70;;;10.50;51.00;;;;;;5053120;28;20123;-53
2021/03/10 08:24:16;;;;;;;29.20;20.40;;;10.60;50.60;;;;;;5055964;28;20398;-54
2021/03/10 08:26:42;;;;;;;30.07;20.30;;;10.50;50.40;;;;;;5061403;28;20037;-52
2021/03/10 08:29:11;;;;;;;27.37;20.83;;;10.60;50.10;;;;;;5054646;28;20139;-55
2021/03/10 08:31:44;;;;;;;32.03;21.77;;;10.60;49.50;;;;;;5058374;28;20142;-56
2021/03/10 08:34:10;;;;;;;31.57;23.00;;;10.70;49.70;;;;;;5058416;28;20045;-54
2021/03/10 08:36:35;;;;;;;35.73;22.43;;;10.60;49.80;;;;;;5058290;28;20090;-56
2021/03/10 08:39:28;;;;;;;31.17;20.97;;;10.70;50.10;;;;;;5053872;28;20207;-55
2021/03/10 08:41:56;;;;;;;30.73;21.20;;;10.80;48.20;;;;;;5002835;28;20068;-55
2021/03/10 08:44:24;;;;;;;34.43;21.33;;;10.80;49.20;;;;;;5057636;28;20040;-54
2021/03/10 08:46:51;;;;;;;31.10;22.77;;;10.80;49.00;;;;;;5059458;28;20041;-56
2021/03/10 08:49:28;;;;;;;33.37;22.60;;;10.80;48.80;;;;;;5059436;28;20446;-55
2021/03/10 08:52:16;;;;;;;33.73;23.13;;;10.80;48.30;;;;;;5058005;28;20119;-51
2021/03/10 08:54:46;;;;;;;35.57;23.03;;;10.90;48.50;;;;;;5029401;28;20056;-52
2021/03/10 08:57:12;;;;;;;33.67;24.10;;;10.90;48.20;;;;;;5054984;28;20039;-56
2021/03/10 08:59:38;;;;;;;31.00;22.20;;;10.90;48.60;;;;;;5052114;28;20036;-59
2021/03/10 09:02:04;;;;;;;33.67;23.10;;;10.90;48.60;;;;;;5058408;28;20036;-59
2021/03/10 09:04:30;;;;;;;30.87;22.97;;;10.90;48.30;;;;;;5050807;28;20083;-59
2021/03/10 09:06:58;;;;;;;27.70;21.37;;;10.90;48.20;;;;;;5057779;28;20106;-59
2021/03/10 09:09:25;;;;;;;32.03;22.70;;;11.00;48.70;;;;;;5057984;28;20378;-55
2021/03/10 09:11:55;;;;;;;35.90;22.93;;;11.00;48.60;;;;;;5058249;28;20040;-59
2021/03/10 09:14:22;;;;;;;34.43;24.37;;;11.10;48.90;;;;;;5063475;28;20049;-58
2021/03/10 09:16:59;;;;;;;30.87;23.13;;;11.20;48.40;;;;;;5054010;28;20076;-49
2021/03/10 09:19:33;;;;;;;34.63;24.13;;;11.30;48.10;;;;;;5054871;28;20091;-60
2021/03/10 09:22:09;;;;;;;31.15;22.08;;;11.30;48.30;;;;;;5054101;28;20044;-60
2021/03/10 09:24:51;;;;;;;35.00;24.63;;;11.40;47.80;;;;;;5056239;28;20513;-60
2021/03/10 09:27:20;;;;;;;33.43;23.37;;;11.40;47.50;;;;;;5030602;28;20556;-60
2021/03/10 09:29:46;;;;;;;28.27;22.23;;;11.40;47.70;;;;;;5069654;28;20136;-54
2021/03/10 09:32:12;;;;;;;30.23;22.77;;;11.40;47.80;;;;;;5055773;28;20140;-56
2021/03/10 09:34:38;;;;;;;33.03;23.73;;;11.50;47.60;;;;;;5061444;28;20044;-53
2021/03/10 09:37:09;;;;;;;30.10;21.83;;;11.60;47.50;;;;;;5061837;28;20116;-54
2021/03/10 09:39:39;;;;;;;36.13;23.20;;;11.60;46.80;;;;;;5057002;28;20041;-55
2021/03/10 09:42:06;;;;;;;35.33;23.57;;;11.60;46.80;;;;;;5059194;28;20048;-57
2021/03/10 09:45:01;;;;;;;29.97;23.60;;;11.70;46.40;;;;;;5061105;28;20139;-60
2021/03/10 09:47:26;;;;;;;32.08;22.30;;;11.80;45.70;;;;;;5022213;28;20044;-60
2021/03/10 09:49:59;;;;;;;31.83;21.97;;;11.80;46.40;;;;;;5060520;28;20040;-60
2021/03/10 09:52:36;;;;;;;34.10;22.45;;;12.00;46.00;;;;;;5062822;28;20158;-57
2021/03/10 09:55:05;;;;;;;28.95;21.80;;;12.00;45.50;;;;;;5063106;28;20039;-57
2021/03/10 09:57:31;;;;;;;30.73;23.03;;;12.00;45.40;;;;;;5056252;28;20045;-56
2021/03/10 09:59:58;;;;;;;30.83;23.33;;;12.00;46.00;;;;;;5065727;28;20044;-59
2021/03/10 10:02:25;;;;;;;31.27;24.33;;;11.90;45.70;;;;;;5057549;28;20085;-52
2021/03/10 10:05:02;;;;;;;29.83;22.27;;;12.00;46.30;;;;;;5057730;28;20036;-54
2021/03/10 10:07:29;;;;;;;31.77;23.50;;;12.00;45.90;;;;;;5058630;28;20032;-52
2021/03/10 10:09:55;;;;;;;30.50;22.73;;;12.10;46.50;;;;;;5060093;28;20056;-54
2021/03/10 10:12:22;;;;;;;29.40;23.37;;;12.00;45.60;;;;;;5053689;28;20083;-53
2021/03/10 10:14:48;;;;;;;33.97;24.15;;;12.10;45.70;;;;;;5063466;28;20033;-53
2021/03/10 10:17:13;;;;;;;31.98;23.98;;;12.20;45.50;;;;;;5052118;28;20428;-53
2021/03/10 10:19:40;;;;;;;36.47;24.20;;;12.20;45.30;;;;;;5060154;28;20033;-54
2021/03/10 10:22:06;;;;;;;31.80;23.70;;;12.20;45.20;;;;;;5058821;28;20119;-56
2021/03/10 10:24:32;;;;;;;32.38;25.27;;;12.40;45.00;;;;;;5057348;28;20037;-53
2021/03/10 10:26:57;;;;;;;31.10;24.85;;;12.50;45.10;;;;;;5062238;28;20067;-56
2021/03/10 10:29:23;;;;;;;31.38;23.40;;;12.60;44.60;;;;;;5057221;28;20406;-55
2021/03/10 10:31:48;;;;;;;30.27;24.13;;;12.50;43.70;;;;;;5061137;28;20108;-55
2021/03/10 10:34:14;;;;;;;30.52;24.27;;;12.50;43.90;;;;;;5058941;28;20099;-51
2021/03/10 10:36:40;;;;;;;32.33;25.20;;;12.50;44.80;;;;;;5058531;28;20044;-50
2021/03/10 10:39:05;;;;;;;34.97;25.03;;;12.60;44.40;;;;;;5054367;28;20120;-55
2021/03/10 10:41:31;;;;;;;37.60;25.47;;;12.60;44.40;;;;;;5059605;28;20113;-53
2021/03/10 10:43:57;;;;;;;33.45;25.60;;;12.60;44.60;;;;;;5055378;28;20159;-51
2021/03/10 10:46:23;;;;;;;34.37;24.80;;;12.60;44.00;;;;;;5066724;28;20093;-52
2021/03/10 10:48:50;;;;;;;36.07;26.07;;;12.70;44.50;;;;;;5057823;28;20468;-53
2021/03/10 10:51:19;;;;;;;33.85;25.05;;;12.80;44.10;;;;;;5061334;28;20379;-53
2021/03/10 10:53:44;;;;;;;34.17;24.42;;;13.00;44.10;;;;;;5062513;28;20575;-52
2021/03/10 10:56:10;;;;;;;29.63;24.58;;;13.00;42.90;;;;;;5062347;28;20067;-53
2021/03/10 10:58:35;;;;;;;29.73;23.70;;;13.10;43.80;;;;;;5062409;28;20044;-53
2021/03/10 11:01:01;;;;;;;33.95;24.67;;;13.10;43.10;;;;;;5050867;28;20394;-54
2021/03/10 11:03:26;;;;;;;36.42;24.63;;;13.10;42.90;;;;;;5063564;28;20421;-52
2021/03/10 11:05:52;;;;;;;31.83;24.58;;;13.10;43.00;;;;;;5049146;28;20044;-53
2021/03/10 11:08:18;;;;;;;35.45;25.35;;;13.10;43.20;;;;;;5062371;28;20068;-53
2021/03/10 11:10:43;;;;;;;33.58;24.83;;;13.30;43.20;;;;;;5064997;28;21937;-55
2021/03/10 11:13:09;;;;;;;29.90;24.40;;;13.40;42.30;;;;;;5060814;28;20437;-51
2021/03/10 11:15:34;;;;;;;31.67;24.48;;;13.60;42.80;;;;;;5055397;28;20090;-53
2021/03/10 11:18:02;;;;;;;30.80;24.38;;;13.50;41.50;;;;;;5056531;28;20037;-52
2021/03/10 11:20:28;;;;;;;32.15;25.83;;;13.60;42.60;;;;;;5060033;28;20068;-56
2021/03/10 11:22:53;;;;;;;35.13;25.85;;;13.80;41.70;;;;;;5057696;28;20043;-50
2021/03/10 11:25:19;;;;;;;30.75;25.13;;;13.80;42.20;;;;;;5055312;28;20045;-51
2021/03/10 11:27:45;;;;;;;30.73;25.00;;;13.90;42.00;;;;;;5061746;28;20091;-52
2021/03/10 11:30:11;;;;;;;31.60;26.20;;;13.80;41.10;;;;;;5055100;28;20052;-55
2021/03/10 11:32:37;;;;;;;34.88;25.95;;;14.00;41.60;;;;;;5056732;28;20090;-54
2021/03/10 11:35:05;;;;;;;32.65;25.88;;;14.00;41.80;;;;;;5058431;28;20504;-51
2021/03/10 11:37:31;;;;;;;34.60;24.95;;;14.00;41.70;;;;;;5057074;28;20048;-51
2021/03/10 11:39:56;;;;;;;34.63;27.20;;;14.10;41.70;;;;;;5062452;28;25726;-51
2021/03/10 11:42:23;;;;;;;33.90;25.98;;;14.20;41.30;;;;;;5055402;28;20040;-53
2021/03/10 11:44:48;;;;;;;32.08;26.00;;;14.40;41.00;;;;;;5077972;28;20166;-55
2021/03/10 11:47:15;;;;;;;37.22;27.73;;;14.20;41.20;;;;;;5053210;28;20032;-51
2021/03/10 11:49:42;;;;;;;32.05;26.63;;;14.20;40.80;;;;;;5060200;28;20111;-56
2021/03/10 11:52:07;;;;;;;32.63;26.10;;;14.40;40.70;;;;;;5055607;28;20032;-55
2021/03/10 11:54:33;;;;;;;35.13;24.63;;;14.40;40.20;;;;;;5059165;28;20131;-57
2021/03/10 11:56:59;;;;;;;30.95;24.52;;;14.40;40.30;;;;;;5054436;28;20110;-59
2021/03/10 11:59:25;;;;;;;34.15;26.08;;;14.60;39.50;;;;;;5055592;28;20066;-60
2021/03/10 12:01:51;;;;;;;30.60;24.20;;;14.60;39.20;;;;;;5053006;28;20039;-60
2021/03/10 12:04:18;;;;;;;30.48;24.67;;;14.90;38.70;;;;;;5057449;28;20037;-59
2021/03/10 12:06:43;;;;;;;33.00;26.52;;;15.00;38.70;;;;;;5055989;28;20072;-54
2021/03/10 12:09:09;;;;;;;30.40;25.00;;;14.90;37.90;;;;;;5059287;28;20071;-58
2021/03/10 12:11:35;;;;;;;30.70;25.13;;;14.90;37.90;;;;;;5054427;28;20058;-57
2021/03/10 12:14:01;;;;;;;31.45;25.15;;;14.80;38.30;;;;;;5057276;28;20048;-56
2021/03/10 12:16:26;;;;;;;29.70;24.17;;;15.00;38.60;;;;;;5062057;28;20116;-57
2021/03/10 12:18:52;;;;;;;34.25;25.30;;;15.10;37.70;;;;;;5052176;28;20174;-55
2021/03/10 12:21:18;;;;;;;29.92;23.73;;;15.20;38.20;;;;;;5058252;28;20044;-51
2021/03/10 12:23:43;;;;;;;27.80;24.13;;;15.40;36.70;;;;;;5051666;28;20075;-52
2021/03/10 12:26:09;;;;;;;28.98;23.55;;;15.50;36.80;;;;;;5057427;28;20033;-49
2021/03/10 12:28:34;;;;;;;30.30;23.10;;;15.60;36.70;;;;;;5070681;28;20080;-50
2021/03/10 12:31:00;;;;;;;29.42;23.08;;;15.90;36.50;;;;;;5055650;28;20170;-53
2021/03/10 12:33:26;;;;;;;29.17;24.50;;;15.90;36.30;;;;;;5056134;28;20595;-51
2021/03/10 12:35:52;;;;;;;31.80;23.63;;;16.00;35.60;;;;;;5061259;28;20052;-55
2021/03/10 12:38:17;;;;;;;29.90;23.90;;;16.30;35.60;;;;;;5055436;28;20163;-52
2021/03/10 12:40:43;;;;;;;26.40;22.02;;;16.60;34.00;;;;;;5057649;28;20044;-52
2021/03/10 12:43:08;;;;;;;26.67;22.98;;;16.80;34.10;;;;;;5059267;28;20045;-54
2021/03/10 12:45:34;;;;;;;29.40;23.52;;;17.00;30.30;;;;;;5063166;28;20043;-55
2021/03/10 12:51:21;;;;;;;30.98;24.23;;;18.80;29.80;;;;;;5013469;28;20047;-55
2021/03/10 12:53:47;;;;;;;34.63;25.10;;;19.90;28.80;;;;;;5052725;28;20487;-50
2021/03/10 12:56:13;;;;;;;28.45;24.83;;;19.80;28.60;;;;;;5065303;28;20035;-51
2021/03/10 12:58:38;;;;;;;30.85;25.50;;;19.80;28.50;;;;;;5057301;28;21448;-52
2021/03/10 13:01:04;;;;;;;31.85;25.20;;;20.00;28.00;;;;;;5067683;28;20032;-53
2021/03/10 13:03:30;;;;;;;30.02;24.85;;;20.00;28.00;;;;;;5060724;28;20120;-55
2021/03/10 13:05:56;;;;;;;28.10;23.50;;;19.80;26.80;;;;;;5055009;28;20108;-55